sensor_id;sensor_type;location;lat;lon;timestamp;P1;durP1;ratioP1;P2;durP2;ratioP2
9737;SDS011;4908;47.446;13.900;2022-07-10T00:02:04;2.30;;;2.20;;
9737;SDS011;4908;47.446;13.900;2022-07-10T00:04:31;4.10;;;2.40;;
9737;SDS011;4908;47.446;13.900;2022-07-10T00:06:57;2.17;;;2.07;;
9737;SDS011;4908;47.446;13.900;2022-07-10T00:09:28;2.23;;;1.80;;
9737;SDS011;4908;47.446;13.900;2022-07-10T00:11:55;2.40;;;2.20;;
9737;SDS011;4908;47.446;13.900;2022-07-10T00:14:22;1.50;;;1.50;;
9737;SDS011;4908;47.446;13.900;2022-07-10T00:16:48;1.83;;;1.83;;
9737;SDS011;4908;47.446;13.900;2022-07-10T00:19:15;1.80;;;1.70;;
9737;SDS011;4908;47.446;13.900;2022-07-10T00:21:42;2.03;;;1.93;;
9737;SDS011;4908;47.446;13.900;2022-07-10T00:24:09;2.40;;;2.20;;
9737;SDS011;4908;47.446;13.900;2022-07-10T00:26:37;2.10;;;2.00;;
9737;SDS011;4908;47.446;13.900;2022-07-10T00:29:04;2.50;;;1.70;;
9737;SDS011;4908;47.446;13.900;2022-07-10T00:31:31;1.40;;;1.40;;
9737;SDS011;4908;47.446;13.900;2022-07-10T00:33:58;3.37;;;1.90;;
9737;SDS011;4908;47.446;13.900;2022-07-10T00:36:24;2.03;;;1.83;;
9737;SDS011;4908;47.446;13.900;2022-07-10T00:38:51;2.33;;;2.13;;
9737;SDS011;4908;47.446;13.900;2022-07-10T00:41:18;2.10;;;2.00;;
9737;SDS011;4908;47.446;13.900;2022-07-10T00:43:53;1.77;;;1.77;;
9737;SDS011;4908;47.446;13.900;2022-07-10T00:46:21;2.27;;;2.17;;
9737;SDS011;4908;47.446;13.900;2022-07-10T00:48:49;1.67;;;1.57;;
9737;SDS011;4908;47.446;13.900;2022-07-10T00:51:16;2.23;;;1.70;;
9737;SDS011;4908;47.446;13.900;2022-07-10T00:53:45;3.23;;;2.00;;
9737;SDS011;4908;47.446;13.900;2022-07-10T00:56:13;1.80;;;1.70;;
9737;SDS011;4908;47.446;13.900;2022-07-10T00:58:42;2.30;;;2.10;;
9737;SDS011;4908;47.446;13.900;2022-07-10T01:01:11;2.10;;;2.00;;
9737;SDS011;4908;47.446;13.900;2022-07-10T01:03:38;2.03;;;1.93;;
9737;SDS011;4908;47.446;13.900;2022-07-10T01:06:05;2.10;;;2.00;;
9737;SDS011;4908;47.446;13.900;2022-07-10T01:08:32;2.20;;;2.10;;
9737;SDS011;4908;47.446;13.900;2022-07-10T01:11:00;2.57;;;1.90;;
9737;SDS011;4908;47.446;13.900;2022-07-10T01:13:27;2.90;;;1.73;;
9737;SDS011;4908;47.446;13.900;2022-07-10T01:15:55;2.23;;;2.13;;
9737;SDS011;4908;47.446;13.900;2022-07-10T01:18:23;2.67;;;2.00;;
9737;SDS011;4908;47.446;13.900;2022-07-10T01:20:53;2.00;;;1.90;;
9737;SDS011;4908;47.446;13.900;2022-07-10T01:23:20;2.00;;;2.00;;
9737;SDS011;4908;47.446;13.900;2022-07-10T01:25:47;2.20;;;2.10;;
9737;SDS011;4908;47.446;13.900;2022-07-10T01:28:15;2.10;;;2.00;;
9737;SDS011;4908;47.446;13.900;2022-07-10T01:30:42;2.23;;;1.90;;
9737;SDS011;4908;47.446;13.900;2022-07-10T01:33:09;1.97;;;1.83;;
9737;SDS011;4908;47.446;13.900;2022-07-10T01:35:36;2.13;;;1.90;;
9737;SDS011;4908;47.446;13.900;2022-07-10T01:38:05;2.03;;;1.83;;
9737;SDS011;4908;47.446;13.900;2022-07-10T01:40:32;1.80;;;1.73;;
9737;SDS011;4908;47.446;13.900;2022-07-10T01:42:59;1.63;;;1.53;;
9737;SDS011;4908;47.446;13.900;2022-07-10T01:45:25;1.70;;;1.70;;
9737;SDS011;4908;47.446;13.900;2022-07-10T01:47:52;1.80;;;1.70;;
9737;SDS011;4908;47.446;13.900;2022-07-10T01:50:19;2.17;;;2.07;;
9737;SDS011;4908;47.446;13.900;2022-07-10T01:52:46;3.47;;;2.20;;
9737;SDS011;4908;47.446;13.900;2022-07-10T01:55:14;2.13;;;1.97;;
9737;SDS011;4908;47.446;13.900;2022-07-10T01:57:41;2.03;;;1.97;;
9737;SDS011;4908;47.446;13.900;2022-07-10T02:00:08;2.23;;;2.03;;
9737;SDS011;4908;47.446;13.900;2022-07-10T02:02:35;1.90;;;1.80;;
9737;SDS011;4908;47.446;13.900;2022-07-10T02:05:02;1.80;;;1.80;;
9737;SDS011;4908;47.446;13.900;2022-07-10T02:07:28;1.80;;;1.70;;
9737;SDS011;4908;47.446;13.900;2022-07-10T02:09:55;4.63;;;1.90;;
9737;SDS011;4908;47.446;13.900;2022-07-10T02:12:23;1.93;;;1.77;;
9737;SDS011;4908;47.446;13.900;2022-07-10T02:14:50;1.83;;;1.73;;
9737;SDS011;4908;47.446;13.900;2022-07-10T02:17:17;2.33;;;2.13;;
9737;SDS011;4908;47.446;13.900;2022-07-10T02:19:44;2.00;;;1.90;;
9737;SDS011;4908;47.446;13.900;2022-07-10T02:22:10;2.13;;;1.93;;
9737;SDS011;4908;47.446;13.900;2022-07-10T02:24:37;1.80;;;1.80;;
9737;SDS011;4908;47.446;13.900;2022-07-10T02:27:04;2.10;;;2.00;;
9737;SDS011;4908;47.446;13.900;2022-07-10T02:29:32;2.07;;;1.87;;
9737;SDS011;4908;47.446;13.900;2022-07-10T02:31:59;1.93;;;1.83;;
9737;SDS011;4908;47.446;13.900;2022-07-10T02:34:26;2.20;;;2.00;;
9737;SDS011;4908;47.446;13.900;2022-07-10T02:36:53;1.77;;;1.60;;
9737;SDS011;4908;47.446;13.900;2022-07-10T02:39:20;2.10;;;2.00;;
9737;SDS011;4908;47.446;13.900;2022-07-10T02:41:48;1.90;;;1.83;;
9737;SDS011;4908;47.446;13.900;2022-07-10T02:44:15;2.13;;;2.03;;
9737;SDS011;4908;47.446;13.900;2022-07-10T02:46:43;2.13;;;2.00;;
9737;SDS011;4908;47.446;13.900;2022-07-10T02:49:10;1.90;;;1.80;;
9737;SDS011;4908;47.446;13.900;2022-07-10T02:51:36;2.13;;;1.87;;
9737;SDS011;4908;47.446;13.900;2022-07-10T02:54:03;2.60;;;1.70;;
9737;SDS011;4908;47.446;13.900;2022-07-10T02:56:30;1.60;;;1.60;;
9737;SDS011;4908;47.446;13.900;2022-07-10T02:58:57;1.77;;;1.60;;
9737;SDS011;4908;47.446;13.900;2022-07-10T03:01:24;2.53;;;2.33;;
9737;SDS011;4908;47.446;13.900;2022-07-10T03:03:52;2.40;;;2.30;;
9737;SDS011;4908;47.446;13.900;2022-07-10T03:06:19;2.40;;;2.20;;
9737;SDS011;4908;47.446;13.900;2022-07-10T03:08:45;2.63;;;1.70;;
9737;SDS011;4908;47.446;13.900;2022-07-10T03:11:12;2.00;;;1.60;;
9737;SDS011;4908;47.446;13.900;2022-07-10T03:13:39;1.60;;;1.60;;
9737;SDS011;4908;47.446;13.900;2022-07-10T03:16:06;1.90;;;1.80;;
9737;SDS011;4908;47.446;13.900;2022-07-10T03:18:33;1.83;;;1.73;;
9737;SDS011;4908;47.446;13.900;2022-07-10T03:21:01;2.10;;;1.90;;
9737;SDS011;4908;47.446;13.900;2022-07-10T03:23:29;1.73;;;1.63;;
9737;SDS011;4908;47.446;13.900;2022-07-10T03:25:56;1.90;;;1.80;;
9737;SDS011;4908;47.446;13.900;2022-07-10T03:28:23;2.40;;;2.00;;
9737;SDS011;4908;47.446;13.900;2022-07-10T03:30:50;2.20;;;2.10;;
9737;SDS011;4908;47.446;13.900;2022-07-10T03:33:17;2.10;;;2.00;;
9737;SDS011;4908;47.446;13.900;2022-07-10T03:35:43;1.87;;;1.73;;
9737;SDS011;4908;47.446;13.900;2022-07-10T03:38:12;2.40;;;2.20;;
9737;SDS011;4908;47.446;13.900;2022-07-10T03:40:38;1.93;;;1.87;;
9737;SDS011;4908;47.446;13.900;2022-07-10T03:43:05;1.97;;;1.93;;
9737;SDS011;4908;47.446;13.900;2022-07-10T03:45:32;2.20;;;1.93;;
9737;SDS011;4908;47.446;13.900;2022-07-10T03:47:59;3.47;;;2.10;;
9737;SDS011;4908;47.446;13.900;2022-07-10T03:50:26;3.23;;;2.20;;
9737;SDS011;4908;47.446;13.900;2022-07-10T03:52:52;2.30;;;2.10;;
9737;SDS011;4908;47.446;13.900;2022-07-10T03:55:21;2.43;;;2.33;;
9737;SDS011;4908;47.446;13.900;2022-07-10T03:57:47;3.93;;;2.30;;
9737;SDS011;4908;47.446;13.900;2022-07-10T04:00:19;2.37;;;2.00;;
9737;SDS011;4908;47.446;13.900;2022-07-10T04:02:48;2.33;;;2.23;;
9737;SDS011;4908;47.446;13.900;2022-07-10T04:05:20;2.20;;;2.10;;
9737;SDS011;4908;47.446;13.900;2022-07-10T04:07:46;5.00;;;2.67;;
9737;SDS011;4908;47.446;13.900;2022-07-10T04:10:13;4.60;;;4.03;;
9737;SDS011;4908;47.446;13.900;2022-07-10T04:12:42;3.53;;;3.27;;
9737;SDS011;4908;47.446;13.900;2022-07-10T04:15:09;3.40;;;2.90;;
9737;SDS011;4908;47.446;13.900;2022-07-10T04:17:36;3.10;;;2.90;;
9737;SDS011;4908;47.446;13.900;2022-07-10T04:20:03;2.57;;;2.47;;
9737;SDS011;4908;47.446;13.900;2022-07-10T04:22:31;2.30;;;2.20;;
9737;SDS011;4908;47.446;13.900;2022-07-10T04:24:58;2.50;;;2.40;;
9737;SDS011;4908;47.446;13.900;2022-07-10T04:27:24;3.37;;;2.70;;
9737;SDS011;4908;47.446;13.900;2022-07-10T04:29:53;2.30;;;2.20;;
9737;SDS011;4908;47.446;13.900;2022-07-10T04:32:20;4.20;;;2.40;;
9737;SDS011;4908;47.446;13.900;2022-07-10T04:34:47;2.13;;;2.03;;
9737;SDS011;4908;47.446;13.900;2022-07-10T04:37:13;2.20;;;2.10;;
9737;SDS011;4908;47.446;13.900;2022-07-10T04:39:41;1.90;;;1.90;;
9737;SDS011;4908;47.446;13.900;2022-07-10T04:42:08;2.20;;;2.00;;
9737;SDS011;4908;47.446;13.900;2022-07-10T04:44:35;2.13;;;1.97;;
9737;SDS011;4908;47.446;13.900;2022-07-10T04:47:04;3.30;;;3.10;;
9737;SDS011;4908;47.446;13.900;2022-07-10T04:49:32;2.80;;;2.60;;
9737;SDS011;4908;47.446;13.900;2022-07-10T04:51:59;2.60;;;2.50;;
9737;SDS011;4908;47.446;13.900;2022-07-10T04:54:26;2.90;;;2.77;;
9737;SDS011;4908;47.446;13.900;2022-07-10T04:56:53;2.43;;;2.33;;
9737;SDS011;4908;47.446;13.900;2022-07-10T04:59:20;4.40;;;2.80;;
9737;SDS011;4908;47.446;13.900;2022-07-10T05:01:47;2.40;;;2.30;;
9737;SDS011;4908;47.446;13.900;2022-07-10T05:04:15;2.70;;;2.50;;
9737;SDS011;4908;47.446;13.900;2022-07-10T05:06:42;2.97;;;2.77;;
9737;SDS011;4908;47.446;13.900;2022-07-10T05:09:09;2.60;;;2.50;;
9737;SDS011;4908;47.446;13.900;2022-07-10T05:11:36;2.43;;;2.33;;
9737;SDS011;4908;47.446;13.900;2022-07-10T05:14:02;3.27;;;2.83;;
9737;SDS011;4908;47.446;13.900;2022-07-10T05:16:29;3.10;;;2.90;;
9737;SDS011;4908;47.446;13.900;2022-07-10T05:18:56;2.67;;;2.50;;
9737;SDS011;4908;47.446;13.900;2022-07-10T05:21:24;2.90;;;2.70;;
9737;SDS011;4908;47.446;13.900;2022-07-10T05:23:51;3.30;;;2.60;;
9737;SDS011;4908;47.446;13.900;2022-07-10T05:26:18;3.40;;;2.80;;
9737;SDS011;4908;47.446;13.900;2022-07-10T05:28:45;2.97;;;2.77;;
9737;SDS011;4908;47.446;13.900;2022-07-10T05:31:12;2.57;;;2.37;;
9737;SDS011;4908;47.446;13.900;2022-07-10T05:33:39;2.53;;;2.33;;
9737;SDS011;4908;47.446;13.900;2022-07-10T05:36:06;2.53;;;2.37;;
9737;SDS011;4908;47.446;13.900;2022-07-10T05:38:34;2.90;;;2.40;;
9737;SDS011;4908;47.446;13.900;2022-07-10T05:41:02;2.87;;;2.67;;
9737;SDS011;4908;47.446;13.900;2022-07-10T05:43:29;2.50;;;2.40;;
9737;SDS011;4908;47.446;13.900;2022-07-10T05:45:56;2.23;;;2.13;;
9737;SDS011;4908;47.446;13.900;2022-07-10T05:48:23;2.60;;;2.50;;
9737;SDS011;4908;47.446;13.900;2022-07-10T05:50:50;3.20;;;3.00;;
9737;SDS011;4908;47.446;13.900;2022-07-10T05:53:17;3.33;;;3.23;;
9737;SDS011;4908;47.446;13.900;2022-07-10T05:55:47;3.20;;;3.00;;
9737;SDS011;4908;47.446;13.900;2022-07-10T05:58:14;3.40;;;3.20;;
9737;SDS011;4908;47.446;13.900;2022-07-10T06:00:41;3.67;;;3.37;;
9737;SDS011;4908;47.446;13.900;2022-07-10T06:03:08;3.03;;;2.83;;
9737;SDS011;4908;47.446;13.900;2022-07-10T06:05:35;3.27;;;3.00;;
9737;SDS011;4908;47.446;13.900;2022-07-10T06:08:02;3.30;;;3.10;;
9737;SDS011;4908;47.446;13.900;2022-07-10T06:10:30;3.03;;;2.70;;
9737;SDS011;4908;47.446;13.900;2022-07-10T06:12:58;2.63;;;2.50;;
9737;SDS011;4908;47.446;13.900;2022-07-10T06:15:25;3.83;;;2.47;;
9737;SDS011;4908;47.446;13.900;2022-07-10T06:17:51;2.60;;;2.50;;
9737;SDS011;4908;47.446;13.900;2022-07-10T06:20:18;1.93;;;1.93;;
9737;SDS011;4908;47.446;13.900;2022-07-10T06:22:45;2.30;;;2.20;;
9737;SDS011;4908;47.446;13.900;2022-07-10T06:25:12;2.40;;;2.30;;
9737;SDS011;4908;47.446;13.900;2022-07-10T06:27:38;1.93;;;1.90;;
9737;SDS011;4908;47.446;13.900;2022-07-10T06:30:07;2.30;;;2.20;;
9737;SDS011;4908;47.446;13.900;2022-07-10T06:32:35;2.60;;;2.50;;
9737;SDS011;4908;47.446;13.900;2022-07-10T06:35:02;3.60;;;3.40;;
9737;SDS011;4908;47.446;13.900;2022-07-10T06:37:30;3.50;;;3.20;;
9737;SDS011;4908;47.446;13.900;2022-07-10T06:39:57;3.23;;;3.03;;
9737;SDS011;4908;47.446;13.900;2022-07-10T06:42:23;3.40;;;3.20;;
9737;SDS011;4908;47.446;13.900;2022-07-10T06:44:51;3.33;;;3.13;;
9737;SDS011;4908;47.446;13.900;2022-07-10T06:47:19;3.40;;;3.20;;
9737;SDS011;4908;47.446;13.900;2022-07-10T06:50:04;3.10;;;2.90;;
9737;SDS011;4908;47.446;13.900;2022-07-10T06:52:32;3.00;;;2.57;;
9737;SDS011;4908;47.446;13.900;2022-07-10T06:54:59;2.80;;;2.70;;
9737;SDS011;4908;47.446;13.900;2022-07-10T06:57:26;2.40;;;2.30;;
9737;SDS011;4908;47.446;13.900;2022-07-10T06:59:53;3.47;;;2.60;;
9737;SDS011;4908;47.446;13.900;2022-07-10T07:02:22;2.63;;;2.43;;
9737;SDS011;4908;47.446;13.900;2022-07-10T07:04:49;2.17;;;2.07;;
9737;SDS011;4908;47.446;13.900;2022-07-10T07:07:15;3.13;;;2.63;;
9737;SDS011;4908;47.446;13.900;2022-07-10T07:09:42;2.30;;;2.20;;
9737;SDS011;4908;47.446;13.900;2022-07-10T07:12:10;3.23;;;2.70;;
9737;SDS011;4908;47.446;13.900;2022-07-10T07:14:36;3.67;;;2.87;;
9737;SDS011;4908;47.446;13.900;2022-07-10T07:17:04;2.63;;;2.43;;
9737;SDS011;4908;47.446;13.900;2022-07-10T07:19:35;2.70;;;2.50;;
9737;SDS011;4908;47.446;13.900;2022-07-10T07:22:20;2.30;;;2.20;;
9737;SDS011;4908;47.446;13.900;2022-07-10T07:25:04;2.53;;;2.30;;
9737;SDS011;4908;47.446;13.900;2022-07-10T07:27:32;2.70;;;2.60;;
9737;SDS011;4908;47.446;13.900;2022-07-10T07:30:01;2.50;;;2.30;;
9737;SDS011;4908;47.446;13.900;2022-07-10T07:32:29;2.50;;;2.40;;
9737;SDS011;4908;47.446;13.900;2022-07-10T07:34:58;2.00;;;1.90;;
9737;SDS011;4908;47.446;13.900;2022-07-10T07:37:34;1.60;;;1.60;;
9737;SDS011;4908;47.446;13.900;2022-07-10T07:40:02;2.50;;;2.30;;
9737;SDS011;4908;47.446;13.900;2022-07-10T07:42:29;2.10;;;2.00;;
9737;SDS011;4908;47.446;13.900;2022-07-10T07:44:56;2.37;;;2.20;;
9737;SDS011;4908;47.446;13.900;2022-07-10T07:47:23;2.03;;;1.83;;
9737;SDS011;4908;47.446;13.900;2022-07-10T07:49:50;2.00;;;1.90;;
9737;SDS011;4908;47.446;13.900;2022-07-10T07:52:18;2.07;;;1.97;;
9737;SDS011;4908;47.446;13.900;2022-07-10T07:54:45;1.70;;;1.70;;
9737;SDS011;4908;47.446;13.900;2022-07-10T07:57:12;3.17;;;2.20;;
9737;SDS011;4908;47.446;13.900;2022-07-10T07:59:39;2.30;;;2.10;;
9737;SDS011;4908;47.446;13.900;2022-07-10T08:02:06;2.53;;;2.43;;
9737;SDS011;4908;47.446;13.900;2022-07-10T08:04:33;4.40;;;2.60;;
9737;SDS011;4908;47.446;13.900;2022-07-10T08:07:00;2.30;;;2.20;;
9737;SDS011;4908;47.446;13.900;2022-07-10T08:09:28;2.70;;;2.50;;
9737;SDS011;4908;47.446;13.900;2022-07-10T08:11:55;14.80;;;10.33;;
9737;SDS011;4908;47.446;13.900;2022-07-10T08:14:22;14.13;;;8.50;;
9737;SDS011;4908;47.446;13.900;2022-07-10T08:16:49;5.47;;;4.40;;
9737;SDS011;4908;47.446;13.900;2022-07-10T08:19:16;2.80;;;2.60;;
9737;SDS011;4908;47.446;13.900;2022-07-10T08:21:43;3.37;;;3.17;;
9737;SDS011;4908;47.446;13.900;2022-07-10T08:24:10;3.03;;;2.83;;
9737;SDS011;4908;47.446;13.900;2022-07-10T08:26:38;2.83;;;2.70;;
9737;SDS011;4908;47.446;13.900;2022-07-10T08:29:05;2.67;;;2.57;;
9737;SDS011;4908;47.446;13.900;2022-07-10T08:31:31;2.20;;;2.10;;
9737;SDS011;4908;47.446;13.900;2022-07-10T08:33:59;2.80;;;2.70;;
9737;SDS011;4908;47.446;13.900;2022-07-10T08:36:26;3.00;;;2.83;;
9737;SDS011;4908;47.446;13.900;2022-07-10T08:38:53;3.50;;;3.20;;
9737;SDS011;4908;47.446;13.900;2022-07-10T08:41:21;2.77;;;2.60;;
9737;SDS011;4908;47.446;13.900;2022-07-10T08:43:52;2.67;;;2.53;;
9737;SDS011;4908;47.446;13.900;2022-07-10T08:46:19;3.17;;;2.97;;
9737;SDS011;4908;47.446;13.900;2022-07-10T08:48:46;2.67;;;2.57;;
9737;SDS011;4908;47.446;13.900;2022-07-10T08:51:15;3.73;;;3.53;;
9737;SDS011;4908;47.446;13.900;2022-07-10T08:53:49;2.53;;;2.43;;
9737;SDS011;4908;47.446;13.900;2022-07-10T08:56:18;3.30;;;3.20;;
9737;SDS011;4908;47.446;13.900;2022-07-10T08:58:44;2.87;;;2.70;;
9737;SDS011;4908;47.446;13.900;2022-07-10T09:01:14;3.60;;;3.40;;
9737;SDS011;4908;47.446;13.900;2022-07-10T09:03:48;3.70;;;3.50;;
9737;SDS011;4908;47.446;13.900;2022-07-10T09:06:15;2.93;;;2.73;;
9737;SDS011;4908;47.446;13.900;2022-07-10T09:08:57;2.80;;;2.70;;
9737;SDS011;4908;47.446;13.900;2022-07-10T09:11:25;3.37;;;3.20;;
9737;SDS011;4908;47.446;13.900;2022-07-10T09:13:55;3.33;;;3.13;;
9737;SDS011;4908;47.446;13.900;2022-07-10T09:16:25;3.20;;;2.90;;
9737;SDS011;4908;47.446;13.900;2022-07-10T09:18:53;2.90;;;2.80;;
9737;SDS011;4908;47.446;13.900;2022-07-10T09:21:20;2.57;;;2.47;;
9737;SDS011;4908;47.446;13.900;2022-07-10T09:23:47;2.77;;;2.57;;
9737;SDS011;4908;47.446;13.900;2022-07-10T09:26:15;2.93;;;2.73;;
9737;SDS011;4908;47.446;13.900;2022-07-10T09:28:43;2.70;;;2.60;;
9737;SDS011;4908;47.446;13.900;2022-07-10T09:31:10;2.33;;;2.23;;
9737;SDS011;4908;47.446;13.900;2022-07-10T09:33:39;2.70;;;2.50;;
9737;SDS011;4908;47.446;13.900;2022-07-10T09:36:07;2.00;;;1.90;;
9737;SDS011;4908;47.446;13.900;2022-07-10T09:41:25;1.87;;;1.77;;
9737;SDS011;4908;47.446;13.900;2022-07-10T09:43:54;2.00;;;1.90;;
9737;SDS011;4908;47.446;13.900;2022-07-10T09:46:23;1.90;;;1.90;;
9737;SDS011;4908;47.446;13.900;2022-07-10T09:49:02;1.50;;;1.50;;
9737;SDS011;4908;47.446;13.900;2022-07-10T09:51:32;1.83;;;1.57;;
9737;SDS011;4908;47.446;13.900;2022-07-10T09:54:01;2.10;;;2.00;;
9737;SDS011;4908;47.446;13.900;2022-07-10T09:56:33;1.70;;;1.67;;
9737;SDS011;4908;47.446;13.900;2022-07-10T09:59:07;2.00;;;1.90;;
9737;SDS011;4908;47.446;13.900;2022-07-10T10:01:36;1.97;;;1.97;;
9737;SDS011;4908;47.446;13.900;2022-07-10T10:04:05;1.90;;;1.80;;
9737;SDS011;4908;47.446;13.900;2022-07-10T10:06:35;1.90;;;1.80;;
9737;SDS011;4908;47.446;13.900;2022-07-10T10:09:03;1.70;;;1.53;;
9737;SDS011;4908;47.446;13.900;2022-07-10T10:11:32;1.97;;;1.87;;
9737;SDS011;4908;47.446;13.900;2022-07-10T10:14:01;1.87;;;1.77;;
9737;SDS011;4908;47.446;13.900;2022-07-10T10:16:29;1.30;;;1.30;;
9737;SDS011;4908;47.446;13.900;2022-07-10T10:18:56;1.50;;;1.40;;
9737;SDS011;4908;47.446;13.900;2022-07-10T10:21:43;2.33;;;1.70;;
9737;SDS011;4908;47.446;13.900;2022-07-10T10:24:11;1.37;;;1.37;;
9737;SDS011;4908;47.446;13.900;2022-07-10T10:26:40;1.53;;;1.53;;
9737;SDS011;4908;47.446;13.900;2022-07-10T10:29:08;1.40;;;1.40;;
9737;SDS011;4908;47.446;13.900;2022-07-10T10:31:35;1.80;;;1.70;;
9737;SDS011;4908;47.446;13.900;2022-07-10T10:34:03;1.30;;;1.30;;
9737;SDS011;4908;47.446;13.900;2022-07-10T10:36:44;1.60;;;1.50;;
9737;SDS011;4908;47.446;13.900;2022-07-10T10:39:13;1.33;;;1.33;;
9737;SDS011;4908;47.446;13.900;2022-07-10T10:41:47;1.40;;;1.40;;
9737;SDS011;4908;47.446;13.900;2022-07-10T10:44:19;1.40;;;1.30;;
9737;SDS011;4908;47.446;13.900;2022-07-10T10:46:55;1.30;;;1.30;;
9737;SDS011;4908;47.446;13.900;2022-07-10T10:49:26;1.30;;;1.30;;
9737;SDS011;4908;47.446;13.900;2022-07-10T10:52:16;1.27;;;1.20;;
9737;SDS011;4908;47.446;13.900;2022-07-10T10:57:36;1.37;;;1.27;;
9737;SDS011;4908;47.446;13.900;2022-07-10T11:00:13;1.50;;;1.50;;
9737;SDS011;4908;47.446;13.900;2022-07-10T11:05:49;1.50;;;1.40;;
9737;SDS011;4908;47.446;13.900;2022-07-10T11:08:37;1.70;;;1.60;;
9737;SDS011;4908;47.446;13.900;2022-07-10T11:14:06;1.33;;;1.33;;
9737;SDS011;4908;47.446;13.900;2022-07-10T11:19:22;1.60;;;1.50;;
9737;SDS011;4908;47.446;13.900;2022-07-10T11:21:51;1.10;;;1.10;;
9737;SDS011;4908;47.446;13.900;2022-07-10T11:24:33;1.60;;;1.50;;
9737;SDS011;4908;47.446;13.900;2022-07-10T11:27:11;1.70;;;1.60;;
9737;SDS011;4908;47.446;13.900;2022-07-10T11:29:55;1.40;;;1.30;;
9737;SDS011;4908;47.446;13.900;2022-07-10T11:32:24;1.37;;;1.37;;
9737;SDS011;4908;47.446;13.900;2022-07-10T11:34:51;1.43;;;1.43;;
9737;SDS011;4908;47.446;13.900;2022-07-10T11:37:18;1.40;;;1.40;;
9737;SDS011;4908;47.446;13.900;2022-07-10T11:39:46;1.50;;;1.40;;
9737;SDS011;4908;47.446;13.900;2022-07-10T11:42:14;4.73;;;1.57;;
9737;SDS011;4908;47.446;13.900;2022-07-10T11:44:40;1.57;;;1.53;;
9737;SDS011;4908;47.446;13.900;2022-07-10T11:47:07;1.33;;;1.33;;
9737;SDS011;4908;47.446;13.900;2022-07-10T11:49:34;1.33;;;1.33;;
9737;SDS011;4908;47.446;13.900;2022-07-10T11:52:11;1.10;;;1.10;;
9737;SDS011;4908;47.446;13.900;2022-07-10T11:54:38;1.30;;;1.30;;
9737;SDS011;4908;47.446;13.900;2022-07-10T11:57:09;1.80;;;1.70;;
9737;SDS011;4908;47.446;13.900;2022-07-10T11:59:36;1.70;;;1.50;;
9737;SDS011;4908;47.446;13.900;2022-07-10T12:02:03;1.30;;;1.30;;
9737;SDS011;4908;47.446;13.900;2022-07-10T12:04:30;1.60;;;1.30;;
9737;SDS011;4908;47.446;13.900;2022-07-10T12:06:57;1.53;;;1.43;;
9737;SDS011;4908;47.446;13.900;2022-07-10T12:09:24;1.23;;;1.23;;
9737;SDS011;4908;47.446;13.900;2022-07-10T12:11:58;1.47;;;1.37;;
9737;SDS011;4908;47.446;13.900;2022-07-10T12:14:27;1.77;;;1.40;;
9737;SDS011;4908;47.446;13.900;2022-07-10T12:16:55;1.63;;;1.53;;
9737;SDS011;4908;47.446;13.900;2022-07-10T12:19:24;1.60;;;1.50;;
9737;SDS011;4908;47.446;13.900;2022-07-10T12:21:53;1.60;;;1.50;;
9737;SDS011;4908;47.446;13.900;2022-07-10T12:24:20;1.53;;;1.43;;
9737;SDS011;4908;47.446;13.900;2022-07-10T12:26:49;1.53;;;1.27;;
9737;SDS011;4908;47.446;13.900;2022-07-10T12:29:20;1.63;;;1.43;;
9737;SDS011;4908;47.446;13.900;2022-07-10T12:31:49;1.60;;;1.50;;
9737;SDS011;4908;47.446;13.900;2022-07-10T12:34:17;1.33;;;1.30;;
9737;SDS011;4908;47.446;13.900;2022-07-10T12:36:45;1.50;;;1.40;;
9737;SDS011;4908;47.446;13.900;2022-07-10T12:39:13;1.40;;;1.30;;
9737;SDS011;4908;47.446;13.900;2022-07-10T12:41:54;1.20;;;1.20;;
9737;SDS011;4908;47.446;13.900;2022-07-10T12:44:35;1.73;;;1.63;;
9737;SDS011;4908;47.446;13.900;2022-07-10T12:47:05;1.40;;;1.37;;
9737;SDS011;4908;47.446;13.900;2022-07-10T12:49:49;1.40;;;1.40;;
9737;SDS011;4908;47.446;13.900;2022-07-10T12:52:24;1.37;;;1.27;;
9737;SDS011;4908;47.446;13.900;2022-07-10T12:55:06;1.00;;;1.00;;
9737;SDS011;4908;47.446;13.900;2022-07-10T12:57:44;1.70;;;1.43;;
9737;SDS011;4908;47.446;13.900;2022-07-10T13:00:12;1.17;;;1.17;;
9737;SDS011;4908;47.446;13.900;2022-07-10T13:02:41;2.30;;;1.13;;
9737;SDS011;4908;47.446;13.900;2022-07-10T13:05:08;2.30;;;1.30;;
9737;SDS011;4908;47.446;13.900;2022-07-10T13:07:36;1.07;;;1.07;;
9737;SDS011;4908;47.446;13.900;2022-07-10T13:10:04;1.10;;;1.10;;
9737;SDS011;4908;47.446;13.900;2022-07-10T13:12:32;1.20;;;1.20;;
9737;SDS011;4908;47.446;13.900;2022-07-10T13:14:59;1.20;;;1.20;;
9737;SDS011;4908;47.446;13.900;2022-07-10T13:17:26;1.37;;;1.27;;
9737;SDS011;4908;47.446;13.900;2022-07-10T13:19:54;1.57;;;1.30;;
9737;SDS011;4908;47.446;13.900;2022-07-10T13:22:22;1.10;;;1.10;;
9737;SDS011;4908;47.446;13.900;2022-07-10T13:24:48;1.97;;;1.40;;
9737;SDS011;4908;47.446;13.900;2022-07-10T13:27:15;1.50;;;1.23;;
9737;SDS011;4908;47.446;13.900;2022-07-10T13:29:42;1.30;;;1.30;;
9737;SDS011;4908;47.446;13.900;2022-07-10T13:32:09;1.60;;;1.50;;
9737;SDS011;4908;47.446;13.900;2022-07-10T13:34:36;1.60;;;1.50;;
9737;SDS011;4908;47.446;13.900;2022-07-10T13:37:04;1.10;;;1.10;;
9737;SDS011;4908;47.446;13.900;2022-07-10T13:39:31;1.50;;;1.40;;
9737;SDS011;4908;47.446;13.900;2022-07-10T13:41:58;1.43;;;1.43;;
9737;SDS011;4908;47.446;13.900;2022-07-10T13:44:25;1.27;;;1.27;;
9737;SDS011;4908;47.446;13.900;2022-07-10T13:46:52;1.67;;;1.20;;
9737;SDS011;4908;47.446;13.900;2022-07-10T13:49:19;1.87;;;1.63;;
9737;SDS011;4908;47.446;13.900;2022-07-10T13:51:50;1.30;;;1.23;;
9737;SDS011;4908;47.446;13.900;2022-07-10T13:54:21;1.37;;;1.23;;
9737;SDS011;4908;47.446;13.900;2022-07-10T13:56:50;1.40;;;1.40;;
9737;SDS011;4908;47.446;13.900;2022-07-10T13:59:18;1.43;;;1.37;;
9737;SDS011;4908;47.446;13.900;2022-07-10T14:01:45;1.63;;;1.53;;
9737;SDS011;4908;47.446;13.900;2022-07-10T14:04:12;1.80;;;1.70;;
9737;SDS011;4908;47.446;13.900;2022-07-10T14:06:38;1.30;;;1.30;;
9737;SDS011;4908;47.446;13.900;2022-07-10T14:09:05;1.43;;;1.43;;
9737;SDS011;4908;47.446;13.900;2022-07-10T14:11:33;1.37;;;1.37;;
9737;SDS011;4908;47.446;13.900;2022-07-10T14:14:00;1.53;;;1.53;;
9737;SDS011;4908;47.446;13.900;2022-07-10T14:16:27;1.90;;;1.80;;
9737;SDS011;4908;47.446;13.900;2022-07-10T14:18:54;1.50;;;1.43;;
9737;SDS011;4908;47.446;13.900;2022-07-10T14:21:21;3.57;;;1.53;;
9737;SDS011;4908;47.446;13.900;2022-07-10T14:23:50;1.30;;;1.30;;
9737;SDS011;4908;47.446;13.900;2022-07-10T14:26:17;1.50;;;1.40;;
9737;SDS011;4908;47.446;13.900;2022-07-10T14:28:45;1.40;;;1.40;;
9737;SDS011;4908;47.446;13.900;2022-07-10T14:31:12;1.30;;;1.30;;
9737;SDS011;4908;47.446;13.900;2022-07-10T14:33:39;1.10;;;1.10;;
9737;SDS011;4908;47.446;13.900;2022-07-10T14:36:06;2.27;;;1.70;;
9737;SDS011;4908;47.446;13.900;2022-07-10T14:38:33;1.30;;;1.30;;
9737;SDS011;4908;47.446;13.900;2022-07-10T14:41:01;1.20;;;1.20;;
9737;SDS011;4908;47.446;13.900;2022-07-10T14:43:29;1.07;;;0.97;;
9737;SDS011;4908;47.446;13.900;2022-07-10T14:46:00;1.27;;;1.10;;
9737;SDS011;4908;47.446;13.900;2022-07-10T14:48:28;1.40;;;1.30;;
9737;SDS011;4908;47.446;13.900;2022-07-10T14:50:56;1.20;;;1.20;;
9737;SDS011;4908;47.446;13.900;2022-07-10T14:53:23;1.20;;;1.10;;
9737;SDS011;4908;47.446;13.900;2022-07-10T14:55:50;1.53;;;1.40;;
9737;SDS011;4908;47.446;13.900;2022-07-10T14:58:17;1.00;;;1.00;;
9737;SDS011;4908;47.446;13.900;2022-07-10T15:00:44;1.40;;;1.30;;
9737;SDS011;4908;47.446;13.900;2022-07-10T15:03:12;1.70;;;1.17;;
9737;SDS011;4908;47.446;13.900;2022-07-10T15:05:39;2.30;;;1.30;;
9737;SDS011;4908;47.446;13.900;2022-07-10T15:08:06;1.50;;;1.40;;
9737;SDS011;4908;47.446;13.900;2022-07-10T15:10:32;1.80;;;1.70;;
9737;SDS011;4908;47.446;13.900;2022-07-10T15:12:59;1.40;;;1.40;;
9737;SDS011;4908;47.446;13.900;2022-07-10T15:15:30;1.23;;;1.13;;
9737;SDS011;4908;47.446;13.900;2022-07-10T15:17:56;1.20;;;1.20;;
9737;SDS011;4908;47.446;13.900;2022-07-10T15:20:25;1.03;;;1.03;;
9737;SDS011;4908;47.446;13.900;2022-07-10T15:22:52;1.60;;;1.33;;